EETN/TLL METAR and TAF weather

Enter ICAO airport designator
Station Type Date Time Source
EETN METAR 2020/02/19 11:20 UTC NOAA

EETN 191120Z 24012KT 9999 FEW020CB BKN025 OVC035 04/01 Q0999 R08/290195 NOSIG


Station Type Date Time Source
EETN Decoded METAR 2020/02/19 11:20 UTC NOAA

Tallinn, Estonia (EETN) 59-24N 024-49E 34M
Feb 19, 2020 - 06:20 AM EST / 2020.02.19 1120 UTC
Wind: from the WSW (240 degrees) at 14 MPH (12 KT):0
Visibility: greater than 7 mile(s):0
Sky conditions: overcast
Weather: Cumulonimbus clouds observed
Temperature: 39 F (4 C)
Dew Point: 33 F (1 C)
Relative Humidity: 80%
Pressure (altimeter): 29.50 in. Hg (0999 hPa)
ob: EETN 191120Z 24012KT 9999 FEW020CB BKN025 OVC035 04/01 Q0999 R08/290195 NOSIG
cycle: 11

Station Type Date Time Source
EETN TAF 2020/02/19 06:57 UTC NOAA

TAF COR TAF COR EETN 190554Z 1906/2006 24016G26KT 9999 BKN025
TEMPO 1906/1913 4000 SHRA BKN007 SCT015CB
BECMG 1915/1917 21006KT PROB40
TEMPO 1919/1922 3000 BR BKN005
TEMPO 1922/2006 1000 DZ BR OVC003

Example: see airport list